sensor_id;sensor_type;location;lat;lon;timestamp;pressure;altitude;pressure_sealevel;temperature;humidity
20710;BME280;10516;51.518;9.864;2022-08-11T00:00:55;99613.94;;;20.87;47.32
20710;BME280;10516;51.518;9.864;2022-08-11T00:03:22;99585.41;;;20.90;47.17
20710;BME280;10516;51.518;9.864;2022-08-11T00:05:52;99600.31;;;20.74;47.39
20710;BME280;10516;51.518;9.864;2022-08-11T00:08:24;99602.72;;;20.94;47.21
20710;BME280;10516;51.518;9.864;2022-08-11T00:11:02;99604.16;;;20.17;49.91
20710;BME280;10516;51.518;9.864;2022-08-11T00:13:38;99607.19;;;20.53;48.21
20710;BME280;10516;51.518;9.864;2022-08-11T00:16:17;99600.00;;;20.62;48.11
20710;BME280;10516;51.518;9.864;2022-08-11T00:18:48;99596.75;;;20.60;48.07
20710;BME280;10516;51.518;9.864;2022-08-11T00:21:14;99592.94;;;20.61;47.91
20710;BME280;10516;51.518;9.864;2022-08-11T00:23:46;99593.81;;;20.56;48.22
20710;BME280;10516;51.518;9.864;2022-08-11T00:26:17;99576.53;;;20.34;48.04
20710;BME280;10516;51.518;9.864;2022-08-11T00:28:43;99570.91;;;20.30;48.22
20710;BME280;10516;51.518;9.864;2022-08-11T00:31:19;99576.97;;;20.41;48.26
20710;BME280;10516;51.518;9.864;2022-08-11T00:33:46;99570.91;;;20.30;48.45
20710;BME280;10516;51.518;9.864;2022-08-11T00:36:15;99607.94;;;20.40;48.53
20710;BME280;10516;51.518;9.864;2022-08-11T00:38:43;99603.44;;;20.49;48.38
20710;BME280;10516;51.518;9.864;2022-08-11T00:58:34;99595.81;;;20.32;48.99
20710;BME280;10516;51.518;9.864;2022-08-11T01:15:22;99598.78;;;19.93;49.36
20710;BME280;10516;51.518;9.864;2022-08-11T01:18:15;99598.16;;;19.78;49.65
20710;BME280;10516;51.518;9.864;2022-08-11T01:20:52;99608.13;;;19.82;49.36
20710;BME280;10516;51.518;9.864;2022-08-11T01:26:37;99612.38;;;19.70;50.05
20710;BME280;10516;51.518;9.864;2022-08-11T01:38:02;99601.44;;;19.75;49.74
20710;BME280;10516;51.518;9.864;2022-08-11T01:46:53;99607.06;;;19.31;50.48
20710;BME280;10516;51.518;9.864;2022-08-11T01:49:31;99610.25;;;19.09;51.16
20710;BME280;10516;51.518;9.864;2022-08-11T01:54:48;99605.84;;;19.47;50.04
20710;BME280;10516;51.518;9.864;2022-08-11T02:00:20;99604.94;;;19.28;51.06
20710;BME280;10516;51.518;9.864;2022-08-11T02:02:54;99613.09;;;19.23;51.16
20710;BME280;10516;51.518;9.864;2022-08-11T02:08:55;99626.59;;;19.28;50.66
20710;BME280;10516;51.518;9.864;2022-08-11T02:11:25;99609.75;;;19.31;50.40
20710;BME280;10516;51.518;9.864;2022-08-11T02:22:29;99614.72;;;18.95;51.45
20710;BME280;10516;51.518;9.864;2022-08-11T02:25:28;99601.66;;;19.31;50.40
20710;BME280;10516;51.518;9.864;2022-08-11T02:28:03;99609.91;;;19.16;50.89
20710;BME280;10516;51.518;9.864;2022-08-11T02:30:45;99610.91;;;18.96;51.21
20710;BME280;10516;51.518;9.864;2022-08-11T02:33:34;99608.13;;;19.06;50.75
20710;BME280;10516;51.518;9.864;2022-08-11T02:36:09;99605.66;;;19.10;51.02
20710;BME280;10516;51.518;9.864;2022-08-11T02:38:50;99604.91;;;19.04;50.70
20710;BME280;10516;51.518;9.864;2022-08-11T02:41:28;99609.97;;;18.82;51.46
20710;BME280;10516;51.518;9.864;2022-08-11T02:44:45;99595.16;;;19.03;50.98
20710;BME280;10516;51.518;9.864;2022-08-11T02:50:00;99600.16;;;18.91;51.28
20710;BME280;10516;51.518;9.864;2022-08-11T02:52:40;99616.06;;;18.64;52.08
20710;BME280;10516;51.518;9.864;2022-08-11T02:55:18;99611.25;;;18.90;51.68
20710;BME280;10516;51.518;9.864;2022-08-11T02:57:58;99611.06;;;18.81;51.57
20710;BME280;10516;51.518;9.864;2022-08-11T03:00:29;99609.38;;;18.85;51.60
20710;BME280;10516;51.518;9.864;2022-08-11T03:14:11;99618.44;;;18.70;52.03
20710;BME280;10516;51.518;9.864;2022-08-11T03:17:05;99611.44;;;18.69;51.86
20710;BME280;10516;51.518;9.864;2022-08-11T03:25:37;99609.72;;;18.45;52.88
20710;BME280;10516;51.518;9.864;2022-08-11T03:30:42;99594.06;;;18.37;51.95
20710;BME280;10516;51.518;9.864;2022-08-11T03:41:42;99605.22;;;18.69;52.23
20710;BME280;10516;51.518;9.864;2022-08-11T03:44:17;99613.22;;;18.40;52.46
20710;BME280;10516;51.518;9.864;2022-08-11T04:14:09;99620.38;;;18.21;53.20
20710;BME280;10516;51.518;9.864;2022-08-11T04:23:17;99620.47;;;18.06;53.00
20710;BME280;10516;51.518;9.864;2022-08-11T04:28:53;99621.09;;;17.83;54.05
20710;BME280;10516;51.518;9.864;2022-08-11T04:31:34;99597.25;;;18.00;53.37
20710;BME280;10516;51.518;9.864;2022-08-11T05:08:01;99622.38;;;16.76;61.39
20710;BME280;10516;51.518;9.864;2022-08-11T05:13:43;99612.13;;;16.83;60.94
20710;BME280;10516;51.518;9.864;2022-08-11T05:16:47;99619.13;;;16.69;62.04
20710;BME280;10516;51.518;9.864;2022-08-11T05:19:32;99625.06;;;17.11;60.87
20710;BME280;10516;51.518;9.864;2022-08-11T05:22:18;99621.00;;;16.89;60.29
20710;BME280;10516;51.518;9.864;2022-08-11T05:25:09;99617.50;;;16.78;62.62
20710;BME280;10516;51.518;9.864;2022-08-11T05:28:04;99626.41;;;17.14;59.43
20710;BME280;10516;51.518;9.864;2022-08-11T05:30:52;99614.28;;;16.91;62.02
20710;BME280;10516;51.518;9.864;2022-08-11T05:33:50;99635.25;;;16.49;64.45
20710;BME280;10516;51.518;9.864;2022-08-11T05:37:06;99636.91;;;16.50;64.97
20710;BME280;10516;51.518;9.864;2022-08-11T05:39:40;99629.03;;;16.38;63.08
20710;BME280;10516;51.518;9.864;2022-08-11T05:42:27;99616.16;;;16.61;64.66
20710;BME280;10516;51.518;9.864;2022-08-11T05:45:14;99624.00;;;16.57;64.88
20710;BME280;10516;51.518;9.864;2022-08-11T05:47:58;99622.34;;;16.56;63.65
20710;BME280;10516;51.518;9.864;2022-08-11T05:50:54;99621.00;;;16.59;64.75
20710;BME280;10516;51.518;9.864;2022-08-11T05:53:55;99625.84;;;16.67;64.64
20710;BME280;10516;51.518;9.864;2022-08-11T05:57:00;99634.22;;;16.60;64.72
20710;BME280;10516;51.518;9.864;2022-08-11T05:59:26;99628.31;;;16.68;64.68
20710;BME280;10516;51.518;9.864;2022-08-11T06:01:59;99624.78;;;16.83;65.03
20710;BME280;10516;51.518;9.864;2022-08-11T06:04:27;99615.38;;;16.85;65.30
20710;BME280;10516;51.518;9.864;2022-08-11T06:09:48;99633.44;;;16.90;65.37
20710;BME280;10516;51.518;9.864;2022-08-11T06:12:19;99631.53;;;17.05;64.27
20710;BME280;10516;51.518;9.864;2022-08-11T06:14:49;99629.38;;;17.07;64.21
20710;BME280;10516;51.518;9.864;2022-08-11T06:17:27;99617.78;;;16.97;63.64
20710;BME280;10516;51.518;9.864;2022-08-11T06:19:59;99631.53;;;17.00;64.26
20710;BME280;10516;51.518;9.864;2022-08-11T06:22:26;99594.59;;;16.91;63.38
20710;BME280;10516;51.518;9.864;2022-08-11T06:24:55;99636.66;;;17.07;64.13
20710;BME280;10516;51.518;9.864;2022-08-11T06:27:23;99632.38;;;18.00;60.13
20710;BME280;10516;51.518;9.864;2022-08-11T06:29:51;99630.13;;;17.33;61.30
20710;BME280;10516;51.518;9.864;2022-08-11T06:32:17;99637.25;;;17.98;61.26
20710;BME280;10516;51.518;9.864;2022-08-11T06:43:48;99634.59;;;17.83;60.80
20710;BME280;10516;51.518;9.864;2022-08-11T06:46:17;99636.91;;;18.10;59.32
20710;BME280;10516;51.518;9.864;2022-08-11T06:48:47;99628.31;;;18.03;60.74
20710;BME280;10516;51.518;9.864;2022-08-11T06:51:15;99628.56;;;18.55;57.76
20710;BME280;10516;51.518;9.864;2022-08-11T06:53:52;99641.50;;;18.14;60.65
20710;BME280;10516;51.518;9.864;2022-08-11T06:56:31;99639.53;;;18.25;61.42
20710;BME280;10516;51.518;9.864;2022-08-11T06:59:17;99634.19;;;18.15;60.34
20710;BME280;10516;51.518;9.864;2022-08-11T07:02:19;99639.09;;;18.03;60.11
20710;BME280;10516;51.518;9.864;2022-08-11T07:04:59;99634.88;;;18.35;61.31
20710;BME280;10516;51.518;9.864;2022-08-11T07:14:04;99623.75;;;18.42;58.70
20710;BME280;10516;51.518;9.864;2022-08-11T07:16:49;99634.47;;;18.62;59.01
20710;BME280;10516;51.518;9.864;2022-08-11T07:19:20;99598.94;;;18.35;60.07
20710;BME280;10516;51.518;9.864;2022-08-11T07:22:06;99619.41;;;18.51;59.49
20710;BME280;10516;51.518;9.864;2022-08-11T07:27:42;99633.28;;;18.78;59.41
20710;BME280;10516;51.518;9.864;2022-08-11T07:30:28;99628.53;;;18.94;60.40
20710;BME280;10516;51.518;9.864;2022-08-11T07:32:57;99620.19;;;18.90;58.80
20710;BME280;10516;51.518;9.864;2022-08-11T07:35:30;99600.53;;;19.08;58.89
20710;BME280;10516;51.518;9.864;2022-08-11T07:37:59;99633.47;;;19.44;58.60
20710;BME280;10516;51.518;9.864;2022-08-11T07:40:25;99631.06;;;19.42;57.63
20710;BME280;10516;51.518;9.864;2022-08-11T07:42:52;99598.00;;;19.17;58.68
20710;BME280;10516;51.518;9.864;2022-08-11T07:45:19;99628.88;;;19.68;57.88
20710;BME280;10516;51.518;9.864;2022-08-11T07:48:06;99623.91;;;19.99;57.51
20710;BME280;10516;51.518;9.864;2022-08-11T07:50:52;99620.97;;;19.95;58.83
20710;BME280;10516;51.518;9.864;2022-08-11T07:53:37;99614.03;;;19.66;55.70
20710;BME280;10516;51.518;9.864;2022-08-11T07:56:04;99620.06;;;20.05;56.74
20710;BME280;10516;51.518;9.864;2022-08-11T07:58:31;99608.84;;;20.49;56.95
20710;BME280;10516;51.518;9.864;2022-08-11T08:01:22;99624.28;;;20.11;56.00
20710;BME280;10516;51.518;9.864;2022-08-11T08:04:09;99629.53;;;20.26;56.90
20710;BME280;10516;51.518;9.864;2022-08-11T08:06:55;99600.56;;;20.40;54.68
20710;BME280;10516;51.518;9.864;2022-08-11T08:09:41;99606.44;;;20.47;54.63
20710;BME280;10516;51.518;9.864;2022-08-11T08:12:26;99608.84;;;20.49;54.00
20710;BME280;10516;51.518;9.864;2022-08-11T08:15:13;99606.00;;;20.91;53.95
20710;BME280;10516;51.518;9.864;2022-08-11T08:17:59;99615.09;;;21.46;53.85
20710;BME280;10516;51.518;9.864;2022-08-11T08:20:32;99596.56;;;21.34;52.69
20710;BME280;10516;51.518;9.864;2022-08-11T08:23:00;99605.63;;;21.43;52.79
20710;BME280;10516;51.518;9.864;2022-08-11T08:25:31;99587.72;;;21.29;53.97
20710;BME280;10516;51.518;9.864;2022-08-11T08:27:58;99594.34;;;21.23;51.93
20710;BME280;10516;51.518;9.864;2022-08-11T08:30:25;99590.34;;;21.47;52.24
20710;BME280;10516;51.518;9.864;2022-08-11T08:33:11;99595.47;;;21.62;52.84
20710;BME280;10516;51.518;9.864;2022-08-11T08:35:38;99600.59;;;21.91;52.34
20710;BME280;10516;51.518;9.864;2022-08-11T08:38:05;99588.16;;;21.90;51.84
20710;BME280;10516;51.518;9.864;2022-08-11T08:40:31;99597.69;;;22.01;51.95
20710;BME280;10516;51.518;9.864;2022-08-11T08:43:06;99597.06;;;22.04;52.36
20710;BME280;10516;51.518;9.864;2022-08-11T08:45:35;99597.78;;;22.10;52.05
20710;BME280;10516;51.518;9.864;2022-08-11T08:48:14;99591.09;;;22.16;51.35
20710;BME280;10516;51.518;9.864;2022-08-11T08:50:47;99591.91;;;22.16;51.78
20710;BME280;10516;51.518;9.864;2022-08-11T08:53:34;99600.22;;;22.33;50.31
20710;BME280;10516;51.518;9.864;2022-08-11T08:56:03;99591.97;;;22.38;51.06
20710;BME280;10516;51.518;9.864;2022-08-11T08:58:33;99579.53;;;22.46;49.75
20710;BME280;10516;51.518;9.864;2022-08-11T09:01:00;99598.03;;;22.58;51.65
20710;BME280;10516;51.518;9.864;2022-08-11T09:03:27;99592.34;;;22.68;51.37
20710;BME280;10516;51.518;9.864;2022-08-11T09:05:54;99592.44;;;23.07;51.28
20710;BME280;10516;51.518;9.864;2022-08-11T09:08:21;99592.59;;;23.02;50.41
20710;BME280;10516;51.518;9.864;2022-08-11T09:10:48;99580.91;;;23.01;49.94
20710;BME280;10516;51.518;9.864;2022-08-11T09:13:34;99588.94;;;23.37;49.83
20710;BME280;10516;51.518;9.864;2022-08-11T09:16:04;99591.03;;;23.40;49.77
20710;BME280;10516;51.518;9.864;2022-08-11T09:18:30;99570.03;;;23.89;48.81
20710;BME280;10516;51.518;9.864;2022-08-11T09:20:56;99587.78;;;23.69;49.49
20710;BME280;10516;51.518;9.864;2022-08-11T09:23:22;99574.41;;;23.50;49.55
20710;BME280;10516;51.518;9.864;2022-08-11T09:26:08;99580.94;;;23.97;49.02
20710;BME280;10516;51.518;9.864;2022-08-11T09:28:53;99568.84;;;24.37;48.20
20710;BME280;10516;51.518;9.864;2022-08-11T09:31:20;99568.31;;;24.10;48.52
20710;BME280;10516;51.518;9.864;2022-08-11T09:33:50;99570.91;;;24.15;49.41
20710;BME280;10516;51.518;9.864;2022-08-11T09:36:17;99554.84;;;24.13;46.25
20710;BME280;10516;51.518;9.864;2022-08-11T09:39:01;99553.72;;;24.23;46.64
20710;BME280;10516;51.518;9.864;2022-08-11T09:41:47;99562.09;;;24.26;45.06
20710;BME280;10516;51.518;9.864;2022-08-11T09:44:13;99548.09;;;24.45;45.51
20710;BME280;10516;51.518;9.864;2022-08-11T09:46:57;99533.63;;;24.70;46.67
20710;BME280;10516;51.518;9.864;2022-08-11T09:49:24;99551.78;;;25.29;45.94
20710;BME280;10516;51.518;9.864;2022-08-11T09:51:51;99549.13;;;25.04;43.52
20710;BME280;10516;51.518;9.864;2022-08-11T09:54:18;99541.84;;;25.16;43.30
20710;BME280;10516;51.518;9.864;2022-08-11T09:56:44;99542.06;;;25.49;45.37
20710;BME280;10516;51.518;9.864;2022-08-11T09:59:28;99546.13;;;25.35;43.94
20710;BME280;10516;51.518;9.864;2022-08-11T10:01:59;99541.38;;;25.61;43.29
20710;BME280;10516;51.518;9.864;2022-08-11T10:04:32;99540.03;;;25.38;42.65
20710;BME280;10516;51.518;9.864;2022-08-11T10:07:01;99536.59;;;25.49;42.73
20710;BME280;10516;51.518;9.864;2022-08-11T10:09:54;99524.69;;;26.24;43.68
20710;BME280;10516;51.518;9.864;2022-08-11T10:12:32;99519.81;;;25.59;41.60
20710;BME280;10516;51.518;9.864;2022-08-11T10:15:09;99510.41;;;25.69;41.58
20710;BME280;10516;51.518;9.864;2022-08-11T10:20:51;99507.31;;;25.99;40.32
20710;BME280;10516;51.518;9.864;2022-08-11T10:23:18;99497.59;;;26.11;39.67
20710;BME280;10516;51.518;9.864;2022-08-11T10:26:04;99498.69;;;25.89;39.45
20710;BME280;10516;51.518;9.864;2022-08-11T10:28:51;99509.97;;;26.49;39.04
20710;BME280;10516;51.518;9.864;2022-08-11T10:31:19;99498.13;;;26.57;38.63
20710;BME280;10516;51.518;9.864;2022-08-11T10:34:05;99489.22;;;26.60;39.81
20710;BME280;10516;51.518;9.864;2022-08-11T10:36:49;99482.66;;;26.73;39.81
20710;BME280;10516;51.518;9.864;2022-08-11T10:39:19;99486.06;;;26.70;38.86
20710;BME280;10516;51.518;9.864;2022-08-11T10:41:46;99460.69;;;27.06;38.95
20710;BME280;10516;51.518;9.864;2022-08-11T10:44:36;99482.63;;;27.55;39.42
20710;BME280;10516;51.518;9.864;2022-08-11T10:47:03;99481.94;;;27.33;36.82
20710;BME280;10516;51.518;9.864;2022-08-11T10:49:48;99479.56;;;27.44;36.91
20710;BME280;10516;51.518;9.864;2022-08-11T10:52:35;99477.31;;;27.98;37.40
20710;BME280;10516;51.518;9.864;2022-08-11T10:55:21;99467.59;;;28.28;37.17
20710;BME280;10516;51.518;9.864;2022-08-11T10:58:06;99470.88;;;28.06;36.71
20710;BME280;10516;51.518;9.864;2022-08-11T11:00:52;99478.28;;;28.17;36.74
20710;BME280;10516;51.518;9.864;2022-08-11T11:03:22;99458.97;;;27.62;35.66
20710;BME280;10516;51.518;9.864;2022-08-11T11:05:49;99466.09;;;27.91;36.90
20710;BME280;10516;51.518;9.864;2022-08-11T11:08:17;99449.69;;;28.77;36.03
20710;BME280;10516;51.518;9.864;2022-08-11T11:11:05;99459.47;;;28.47;34.70
20710;BME280;10516;51.518;9.864;2022-08-11T11:13:32;99446.28;;;28.53;36.04
20710;BME280;10516;51.518;9.864;2022-08-11T11:16:20;99447.75;;;28.78;35.63
20710;BME280;10516;51.518;9.864;2022-08-11T11:19:06;99459.97;;;28.65;34.24
20710;BME280;10516;51.518;9.864;2022-08-11T11:21:35;99448.78;;;28.14;34.90
20710;BME280;10516;51.518;9.864;2022-08-11T11:24:30;99446.88;;;27.91;34.87
20710;BME280;10516;51.518;9.864;2022-08-11T11:37:41;99427.66;;;28.89;34.52
20710;BME280;10516;51.518;9.864;2022-08-11T11:40:09;99434.47;;;28.80;33.34
20710;BME280;10516;51.518;9.864;2022-08-11T11:42:36;99443.09;;;29.44;33.41
20710;BME280;10516;51.518;9.864;2022-08-11T11:45:02;99433.88;;;29.72;33.08
20710;BME280;10516;51.518;9.864;2022-08-11T11:47:29;99427.63;;;29.90;32.85
20710;BME280;10516;51.518;9.864;2022-08-11T11:49:56;99417.97;;;30.00;32.40
20710;BME280;10516;51.518;9.864;2022-08-11T11:52:22;99419.94;;;29.99;33.13
20710;BME280;10516;51.518;9.864;2022-08-11T11:54:51;99426.16;;;30.34;32.16
20710;BME280;10516;51.518;9.864;2022-08-11T11:57:19;99420.13;;;30.48;31.60
20710;BME280;10516;51.518;9.864;2022-08-11T12:00:07;99426.69;;;29.48;33.22
20710;BME280;10516;51.518;9.864;2022-08-11T12:02:52;99383.47;;;30.25;31.28
20710;BME280;10516;51.518;9.864;2022-08-11T12:05:19;99403.06;;;31.10;31.89
20710;BME280;10516;51.518;9.864;2022-08-11T12:07:45;99408.97;;;31.35;32.34
20710;BME280;10516;51.518;9.864;2022-08-11T12:10:30;99414.44;;;31.58;31.75
20710;BME280;10516;51.518;9.864;2022-08-11T12:13:00;99397.88;;;31.32;31.09
20710;BME280;10516;51.518;9.864;2022-08-11T12:15:46;99403.22;;;31.73;32.37
20710;BME280;10516;51.518;9.864;2022-08-11T12:18:13;99394.94;;;30.72;31.54
20710;BME280;10516;51.518;9.864;2022-08-11T12:20:39;99393.63;;;31.12;33.18
20710;BME280;10516;51.518;9.864;2022-08-11T12:23:05;99384.44;;;31.04;31.30
20710;BME280;10516;51.518;9.864;2022-08-11T12:25:49;99382.41;;;30.75;31.74
20710;BME280;10516;51.518;9.864;2022-08-11T12:28:34;99386.78;;;31.84;32.88
20710;BME280;10516;51.518;9.864;2022-08-11T12:30:59;99372.56;;;31.86;30.14
20710;BME280;10516;51.518;9.864;2022-08-11T12:33:26;99375.78;;;31.58;30.66
20710;BME280;10516;51.518;9.864;2022-08-11T12:35:56;99380.97;;;31.07;31.16
20710;BME280;10516;51.518;9.864;2022-08-11T12:38:23;99384.00;;;31.84;32.79
20710;BME280;10516;51.518;9.864;2022-08-11T12:40:49;99354.03;;;32.19;30.82
20710;BME280;10516;51.518;9.864;2022-08-11T12:43:34;99360.19;;;32.46;31.90
20710;BME280;10516;51.518;9.864;2022-08-11T12:46:22;99352.69;;;32.87;31.65
20710;BME280;10516;51.518;9.864;2022-08-11T12:48:55;99349.47;;;32.81;31.53
20710;BME280;10516;51.518;9.864;2022-08-11T12:51:43;99352.56;;;32.73;30.44
20710;BME280;10516;51.518;9.864;2022-08-11T12:54:33;99345.06;;;32.29;30.30
20710;BME280;10516;51.518;9.864;2022-08-11T12:57:16;99333.53;;;32.64;30.76
20710;BME280;10516;51.518;9.864;2022-08-11T13:00:05;99337.28;;;32.89;31.28
20710;BME280;10516;51.518;9.864;2022-08-11T13:02:50;99335.94;;;33.20;29.33
20710;BME280;10516;51.518;9.864;2022-08-11T13:05:35;99323.41;;;33.44;30.07
20710;BME280;10516;51.518;9.864;2022-08-11T13:08:02;99334.34;;;32.65;29.77
20710;BME280;10516;51.518;9.864;2022-08-11T13:10:30;99333.34;;;33.52;31.38
20710;BME280;10516;51.518;9.864;2022-08-11T13:13:16;99321.66;;;33.18;29.07
20710;BME280;10516;51.518;9.864;2022-08-11T13:15:44;99320.00;;;32.08;30.12
20710;BME280;10516;51.518;9.864;2022-08-11T13:18:18;99333.81;;;31.75;30.88
20710;BME280;10516;51.518;9.864;2022-08-11T13:20:48;99335.13;;;32.21;30.57
20710;BME280;10516;51.518;9.864;2022-08-11T13:23:15;99322.00;;;31.45;31.01
20710;BME280;10516;51.518;9.864;2022-08-11T13:25:41;99306.63;;;32.58;32.26
20710;BME280;10516;51.518;9.864;2022-08-11T13:28:08;99323.00;;;33.49;31.69
20710;BME280;10516;51.518;9.864;2022-08-11T13:30:37;99310.75;;;33.46;29.23
20710;BME280;10516;51.518;9.864;2022-08-11T13:33:22;99316.34;;;33.53;28.94
20710;BME280;10516;51.518;9.864;2022-08-11T13:35:51;99311.78;;;34.07;28.47
20710;BME280;10516;51.518;9.864;2022-08-11T13:38:19;99306.97;;;33.93;28.08
20710;BME280;10516;51.518;9.864;2022-08-11T13:40:46;99313.34;;;34.08;31.03
20710;BME280;10516;51.518;9.864;2022-08-11T13:43:14;99312.31;;;33.44;29.07
20710;BME280;10516;51.518;9.864;2022-08-11T13:45:41;99295.47;;;33.87;28.48
20710;BME280;10516;51.518;9.864;2022-08-11T13:48:09;99299.56;;;34.57;28.84
20710;BME280;10516;51.518;9.864;2022-08-11T13:50:36;99289.66;;;34.52;29.28
20710;BME280;10516;51.518;9.864;2022-08-11T13:53:23;99303.72;;;33.63;28.96
20710;BME280;10516;51.518;9.864;2022-08-11T13:55:49;99301.56;;;32.67;30.04
20710;BME280;10516;51.518;9.864;2022-08-11T13:58:16;99297.63;;;32.68;30.23
20710;BME280;10516;51.518;9.864;2022-08-11T14:00:45;99289.03;;;32.83;30.06
20710;BME280;10516;51.518;9.864;2022-08-11T14:03:13;99278.28;;;33.36;30.99
20710;BME280;10516;51.518;9.864;2022-08-11T14:05:51;99283.53;;;32.90;29.41
20710;BME280;10516;51.518;9.864;2022-08-11T14:08:25;99280.03;;;32.97;30.42
20710;BME280;10516;51.518;9.864;2022-08-11T14:10:52;99281.91;;;31.91;30.52
20710;BME280;10516;51.518;9.864;2022-08-11T14:13:41;99279.00;;;32.14;30.74
20710;BME280;10516;51.518;9.864;2022-08-11T14:16:21;99276.56;;;32.52;30.38
20710;BME280;10516;51.518;9.864;2022-08-11T14:18:51;99266.81;;;32.69;32.48
20710;BME280;10516;51.518;9.864;2022-08-11T14:21:20;99265.75;;;32.88;30.47
20710;BME280;10516;51.518;9.864;2022-08-11T14:24:07;99266.53;;;32.85;30.08
20710;BME280;10516;51.518;9.864;2022-08-11T14:26:36;99262.19;;;33.70;31.34
20710;BME280;10516;51.518;9.864;2022-08-11T14:29:07;99268.19;;;33.89;30.16
20710;BME280;10516;51.518;9.864;2022-08-11T14:31:36;99271.38;;;33.98;29.92
20710;BME280;10516;51.518;9.864;2022-08-11T14:34:05;99263.47;;;34.15;30.22
20710;BME280;10516;51.518;9.864;2022-08-11T14:36:36;99254.84;;;33.12;28.80
20710;BME280;10516;51.518;9.864;2022-08-11T14:39:09;99256.97;;;32.72;29.47
20710;BME280;10516;51.518;9.864;2022-08-11T14:41:38;99255.31;;;32.64;29.35
20710;BME280;10516;51.518;9.864;2022-08-11T14:44:24;99258.81;;;32.53;29.92
20710;BME280;10516;51.518;9.864;2022-08-11T14:47:09;99253.31;;;32.57;30.07
20710;BME280;10516;51.518;9.864;2022-08-11T14:49:40;99256.50;;;32.15;29.96
20710;BME280;10516;51.518;9.864;2022-08-11T14:52:15;99242.13;;;32.43;30.12
20710;BME280;10516;51.518;9.864;2022-08-11T14:54:45;99249.66;;;32.02;30.88
20710;BME280;10516;51.518;9.864;2022-08-11T14:57:32;99250.81;;;31.61;31.07
20710;BME280;10516;51.518;9.864;2022-08-11T15:00:00;99247.53;;;32.80;31.02
20710;BME280;10516;51.518;9.864;2022-08-11T15:02:28;99233.75;;;32.87;31.64
20710;BME280;10516;51.518;9.864;2022-08-11T15:05:13;99246.28;;;32.70;29.92
20710;BME280;10516;51.518;9.864;2022-08-11T15:07:39;99254.16;;;32.17;30.66
20710;BME280;10516;51.518;9.864;2022-08-11T15:10:08;99239.56;;;31.43;31.27
20710;BME280;10516;51.518;9.864;2022-08-11T15:12:35;99249.06;;;31.46;31.71
20710;BME280;10516;51.518;9.864;2022-08-11T15:15:04;99244.81;;;32.87;32.07
20710;BME280;10516;51.518;9.864;2022-08-11T15:17:50;99241.13;;;32.69;30.83
20710;BME280;10516;51.518;9.864;2022-08-11T15:20:19;99248.09;;;32.48;30.06
20710;BME280;10516;51.518;9.864;2022-08-11T15:23:03;99237.31;;;32.91;30.35
20710;BME280;10516;51.518;9.864;2022-08-11T15:25:57;99235.09;;;32.49;30.56
20710;BME280;10516;51.518;9.864;2022-08-11T15:28:23;99235.25;;;32.23;30.54
20710;BME280;10516;51.518;9.864;2022-08-11T15:31:10;99228.69;;;33.03;30.24
20710;BME280;10516;51.518;9.864;2022-08-11T15:33:56;99228.88;;;32.66;30.61
20710;BME280;10516;51.518;9.864;2022-08-11T15:36:44;99229.25;;;33.37;30.33
20710;BME280;10516;51.518;9.864;2022-08-11T15:43:07;99217.81;;;33.45;29.11
20710;BME280;10516;51.518;9.864;2022-08-11T15:45:54;99205.41;;;32.46;29.93
20710;BME280;10516;51.518;9.864;2022-08-11T15:51:08;99212.53;;;32.47;31.11
20710;BME280;10516;51.518;9.864;2022-08-11T15:53:56;99211.25;;;31.87;31.15
20710;BME280;10516;51.518;9.864;2022-08-11T15:56:24;99215.81;;;32.60;31.17
20710;BME280;10516;51.518;9.864;2022-08-11T15:58:52;99213.00;;;33.28;30.39
20710;BME280;10516;51.518;9.864;2022-08-11T16:01:39;99212.44;;;31.89;30.17
20710;BME280;10516;51.518;9.864;2022-08-11T16:04:27;99212.00;;;32.24;31.53
20710;BME280;10516;51.518;9.864;2022-08-11T16:07:04;99204.44;;;32.79;31.18
20710;BME280;10516;51.518;9.864;2022-08-11T16:11:56;99211.81;;;33.22;30.98
20710;BME280;10516;51.518;9.864;2022-08-11T16:14:24;99197.94;;;33.15;29.33
20710;BME280;10516;51.518;9.864;2022-08-11T16:17:12;99197.59;;;33.34;30.95
20710;BME280;10516;51.518;9.864;2022-08-11T16:19:40;99197.72;;;32.73;30.23
20710;BME280;10516;51.518;9.864;2022-08-11T16:22:09;99201.63;;;31.37;30.86
20710;BME280;10516;51.518;9.864;2022-08-11T16:24:40;99194.84;;;31.27;31.45
20710;BME280;10516;51.518;9.864;2022-08-11T16:27:09;99187.03;;;30.99;31.34
20710;BME280;10516;51.518;9.864;2022-08-11T16:29:40;99193.38;;;30.48;31.96
20710;BME280;10516;51.518;9.864;2022-08-11T16:32:10;99179.41;;;30.33;31.70
20710;BME280;10516;51.518;9.864;2022-08-11T16:34:54;99194.75;;;30.34;31.68
20710;BME280;10516;51.518;9.864;2022-08-11T16:37:39;99185.09;;;30.48;31.97
20710;BME280;10516;51.518;9.864;2022-08-11T16:40:24;99191.38;;;30.45;32.00
20710;BME280;10516;51.518;9.864;2022-08-11T16:42:51;99173.94;;;30.37;31.98
20710;BME280;10516;51.518;9.864;2022-08-11T16:45:38;99176.66;;;30.63;32.06
20710;BME280;10516;51.518;9.864;2022-08-11T16:48:22;99193.75;;;29.75;32.38
20710;BME280;10516;51.518;9.864;2022-08-11T16:50:49;99187.78;;;29.73;32.23
20710;BME280;10516;51.518;9.864;2022-08-11T16:53:15;99179.38;;;29.85;32.51
20710;BME280;10516;51.518;9.864;2022-08-11T16:55:45;99184.69;;;29.97;32.56
20710;BME280;10516;51.518;9.864;2022-08-11T16:58:13;99176.44;;;30.75;32.56
20710;BME280;10516;51.518;9.864;2022-08-11T17:00:59;99178.34;;;30.71;32.30
20710;BME280;10516;51.518;9.864;2022-08-11T17:03:25;99171.88;;;30.08;32.40
20710;BME280;10516;51.518;9.864;2022-08-11T17:06:10;99183.38;;;30.36;32.97
20710;BME280;10516;51.518;9.864;2022-08-11T17:08:54;99179.81;;;30.91;34.73
20710;BME280;10516;51.518;9.864;2022-08-11T17:11:43;99182.56;;;30.35;32.45
20710;BME280;10516;51.518;9.864;2022-08-11T17:14:47;99182.72;;;30.46;32.31
20710;BME280;10516;51.518;9.864;2022-08-11T17:17:16;99173.00;;;30.03;33.90
20710;BME280;10516;51.518;9.864;2022-08-11T17:19:51;99175.56;;;29.70;32.75
20710;BME280;10516;51.518;9.864;2022-08-11T17:22:19;99174.75;;;29.70;32.48